Time;durP1;ratioP1;P1;durP2;ratioP2;P2;SDS_P1;SDS_P2;PMS_P1;PMS_P2;Temp;Humidity;BMP_temperature;BMP_pressure;BME280_temperature;BME280_humidity;BME280_pressure;Samples;Min_cycle;Max_cycle;Signal;HPM_P1;HPM_P2
2021/12/01 00:01:09;;;;;;;5.28;3.22;;;7.80;99.90;;;;;;4863688;29;20387;-83
2021/12/01 00:03:35;;;;;;;7.07;3.13;;;7.80;99.90;;;;;;4863426;29;20041;-87
2021/12/01 00:06:02;;;;;;;12.60;4.03;;;7.80;99.90;;;;;;4880305;29;20390;-77
2021/12/01 00:08:28;;;;;;;6.82;3.30;;;7.90;99.90;;;;;;4863291;29;20037;-82
2021/12/01 00:10:54;;;;;;;10.98;3.53;;;7.90;99.90;;;;;;4879949;29;20041;-80
2021/12/01 00:13:21;;;;;;;5.38;2.90;;;7.90;99.90;;;;;;4863308;29;20368;-84
2021/12/01 00:15:48;;;;;;;10.10;3.72;;;7.80;99.90;;;;;;4881088;29;20041;-82
2021/12/01 00:18:15;;;;;;;10.85;3.08;;;7.90;99.90;;;;;;4886466;29;20033;-82
2021/12/01 00:20:41;;;;;;;10.68;3.88;;;7.90;99.90;;;;;;4888243;29;20480;-80
2021/12/01 00:23:08;;;;;;;4.00;3.22;;;7.90;99.90;;;;;;4882320;29;20056;-85
2021/12/01 00:25:39;;;;;;;6.47;2.97;;;7.90;99.90;;;;;;4883143;29;20030;-85
2021/12/01 00:28:05;;;;;;;10.15;2.97;;;7.80;99.90;;;;;;4881112;29;20060;-83
2021/12/01 00:30:31;;;;;;;8.27;3.20;;;7.80;99.90;;;;;;4880441;29;20414;-83
2021/12/01 00:32:57;;;;;;;4.22;2.85;;;7.80;99.90;;;;;;4881698;29;20025;-81
2021/12/01 00:35:23;;;;;;;7.07;3.20;;;7.80;99.90;;;;;;4873823;29;20094;-77
2021/12/01 00:37:50;;;;;;;10.85;3.83;;;7.80;99.90;;;;;;4821670;29;1179334;-77
2021/12/01 00:40:16;;;;;;;10.00;3.25;;;7.80;99.90;;;;;;4861756;29;20486;-77
2021/12/01 00:42:42;;;;;;;8.05;3.33;;;7.70;99.90;;;;;;4861485;29;20038;-77
2021/12/01 00:45:21;;;;;;;5.70;2.95;;;7.80;99.90;;;;;;4862215;29;20037;-77
2021/12/01 00:47:50;;;;;;;13.70;3.58;;;7.80;99.90;;;;;;4862258;29;20056;-77
2021/12/01 00:50:24;;;;;;;9.20;3.22;;;7.90;99.90;;;;;;4862186;29;20182;-78
2021/12/01 00:52:57;;;;;;;12.35;3.10;;;7.90;99.90;;;;;;4827052;29;20094;-77
2021/12/01 00:55:23;;;;;;;6.45;3.10;;;7.90;99.90;;;;;;4849219;29;20033;-77
2021/12/01 00:57:52;;;;;;;9.93;3.13;;;7.90;99.90;;;;;;4861947;29;20415;-77
2021/12/01 01:00:21;;;;;;;10.18;3.95;;;7.90;99.90;;;;;;4861991;29;20130;-78
2021/12/01 01:02:47;;;;;;;7.00;3.35;;;7.90;99.90;;;;;;4861548;29;20038;-77
2021/12/01 01:05:13;;;;;;;6.07;2.90;;;7.90;99.90;;;;;;4861824;29;20158;-77
2021/12/01 01:07:39;;;;;;;8.05;3.00;;;7.90;99.90;;;;;;4845324;29;20555;-80
2021/12/01 01:18:22;;;;;;;10.38;3.17;;;8.10;99.90;;;;;;4861874;29;20086;-75
2021/12/01 01:20:48;;;;;;;9.43;2.95;;;8.10;99.90;;;;;;4848140;29;20439;-76
2021/12/01 01:23:14;;;;;;;8.35;3.55;;;8.10;99.90;;;;;;4867555;29;20041;-75
2021/12/01 01:25:39;;;;;;;10.48;3.35;;;8.10;99.90;;;;;;4861467;29;20101;-76
2021/12/01 01:28:05;;;;;;;15.93;3.78;;;8.10;99.90;;;;;;4861011;29;20033;-76
2021/12/01 01:30:31;;;;;;;5.57;3.20;;;8.10;99.90;;;;;;4860629;29;20056;-77
2021/12/01 01:32:59;;;;;;;23.30;3.65;;;8.10;99.90;;;;;;4844373;29;20503;-81
2021/12/01 01:35:25;;;;;;;8.10;3.58;;;8.20;99.90;;;;;;4857637;29;20075;-77
2021/12/01 01:37:50;;;;;;;7.63;3.78;;;8.20;99.90;;;;;;4841830;29;20065;-82
2021/12/01 01:40:16;;;;;;;12.50;3.75;;;8.20;99.90;;;;;;4842186;29;20026;-75
2021/12/01 01:42:42;;;;;;;8.10;3.38;;;8.20;99.90;;;;;;4842664;29;20045;-76
2021/12/01 01:45:09;;;;;;;15.23;3.53;;;8.20;99.90;;;;;;4842259;29;20063;-75
2021/12/01 01:47:35;;;;;;;7.35;3.35;;;8.20;99.90;;;;;;4825112;29;20049;-75
2021/12/01 01:50:18;;;;;;;17.50;3.55;;;8.20;99.90;;;;;;4841231;29;20077;-74
2021/12/01 01:52:43;;;;;;;6.80;3.22;;;8.10;99.90;;;;;;4860434;29;20431;-74
2021/12/01 01:55:09;;;;;;;11.60;3.47;;;8.10;99.90;;;;;;4868614;29;20037;-75
2021/12/01 01:57:35;;;;;;;5.53;3.20;;;8.10;99.90;;;;;;4860106;29;20045;-75
2021/12/01 02:00:02;;;;;;;7.25;2.65;;;8.10;99.90;;;;;;4860929;29;20033;-75
2021/12/01 02:02:28;;;;;;;8.00;3.60;;;8.10;99.90;;;;;;4860472;29;20033;-76
2021/12/01 02:04:56;;;;;;;14.07;3.40;;;8.10;99.90;;;;;;4860761;29;20570;-75
2021/12/01 02:07:21;;;;;;;10.35;3.80;;;8.10;99.90;;;;;;4860895;29;20048;-75
2021/12/01 02:09:48;;;;;;;7.13;3.03;;;8.10;99.90;;;;;;4860833;29;20450;-74
2021/12/01 02:12:14;;;;;;;5.68;2.90;;;8.00;99.90;;;;;;4844411;29;20464;-75
2021/12/01 02:14:41;;;;;;;18.13;3.63;;;8.00;99.90;;;;;;4860827;29;20034;-75
2021/12/01 02:17:07;;;;;;;7.15;2.80;;;8.00;99.90;;;;;;4860405;29;20037;-75
2021/12/01 02:19:37;;;;;;;8.63;2.97;;;8.00;99.90;;;;;;4860158;29;20105;-75
2021/12/01 02:22:03;;;;;;;8.80;3.45;;;8.10;99.90;;;;;;4861175;29;20044;-75
2021/12/01 02:24:29;;;;;;;10.50;3.35;;;8.10;99.90;;;;;;4860358;29;20030;-74
2021/12/01 02:26:55;;;;;;;7.35;3.15;;;8.10;99.90;;;;;;4860344;29;20045;-75
2021/12/01 02:29:24;;;;;;;13.82;4.28;;;8.00;99.90;;;;;;4844033;29;20042;-74
2021/12/01 02:31:51;;;;;;;10.38;3.13;;;8.00;99.90;;;;;;4860124;29;20049;-75
2021/12/01 02:34:22;;;;;;;6.97;3.17;;;7.90;99.90;;;;;;4860107;29;20034;-75
2021/12/01 02:36:51;;;;;;;19.60;3.97;;;8.00;99.90;;;;;;4842773;29;20471;-74
2021/12/01 02:39:18;;;;;;;23.13;4.10;;;8.00;99.90;;;;;;4858604;29;20203;-75
2021/12/01 02:41:49;;;;;;;6.57;3.28;;;8.00;99.90;;;;;;4858630;29;20040;-75
2021/12/01 02:44:17;;;;;;;7.70;3.20;;;8.00;99.90;;;;;;4842507;29;20178;-77
2021/12/01 02:46:44;;;;;;;16.52;3.22;;;7.90;99.90;;;;;;4860549;29;20044;-75
2021/12/01 02:49:10;;;;;;;7.72;3.33;;;7.90;99.90;;;;;;4863186;29;20061;-77
2021/12/01 02:51:37;;;;;;;10.27;2.97;;;7.90;99.90;;;;;;4862068;29;20520;-76
2021/12/01 02:54:04;;;;;;;11.32;3.65;;;7.90;99.90;;;;;;4860281;29;20041;-76
2021/12/01 02:56:31;;;;;;;8.30;3.53;;;7.90;99.90;;;;;;4875201;29;20562;-76
2021/12/01 02:59:00;;;;;;;8.80;2.95;;;7.90;99.90;;;;;;4860105;29;20061;-76
2021/12/01 03:01:27;;;;;;;7.78;2.90;;;7.90;99.90;;;;;;4876520;29;20039;-76
2021/12/01 03:03:53;;;;;;;8.13;3.65;;;8.00;99.90;;;;;;4876980;29;20093;-76
2021/12/01 03:06:22;;;;;;;11.93;3.15;;;8.00;99.90;;;;;;4881324;29;20033;-76
2021/12/01 03:08:48;;;;;;;4.55;2.58;;;8.10;99.90;;;;;;4880840;29;20033;-76
2021/12/01 03:11:15;;;;;;;6.40;3.00;;;8.10;99.90;;;;;;4882320;29;20215;-76
2021/12/01 03:13:41;;;;;;;13.57;2.97;;;8.00;99.90;;;;;;4882162;29;20025;-76
2021/12/01 03:16:07;;;;;;;8.68;2.85;;;8.00;99.90;;;;;;4882163;29;20443;-76
2021/12/01 03:18:33;;;;;;;14.20;3.13;;;8.20;99.90;;;;;;4882269;29;20033;-75
2021/12/01 03:20:59;;;;;;;13.57;3.17;;;8.20;99.90;;;;;;4865200;29;20048;-76
2021/12/01 03:23:26;;;;;;;7.50;2.95;;;8.30;99.90;;;;;;4863410;29;20494;-77
2021/12/01 03:25:52;;;;;;;8.57;3.30;;;8.50;99.90;;;;;;4863449;29;20042;-75
2021/12/01 03:28:19;;;;;;;17.73;3.60;;;8.70;99.90;;;;;;4845092;29;20041;-75
2021/12/01 03:30:45;;;;;;;11.98;3.47;;;8.70;99.90;;;;;;4861991;29;20132;-76
2021/12/01 03:33:14;;;;;;;25.55;3.83;;;8.80;99.90;;;;;;4861975;29;20554;-75
2021/12/01 03:35:43;;;;;;;7.28;2.85;;;8.80;99.90;;;;;;4861823;29;20048;-76
2021/12/01 03:38:10;;;;;;;9.45;3.30;;;8.90;99.90;;;;;;4845014;29;20046;-76
2021/12/01 03:40:35;;;;;;;7.70;3.20;;;8.80;99.90;;;;;;4867401;29;20052;-75
2021/12/01 03:43:02;;;;;;;12.20;2.45;;;8.70;99.90;;;;;;4881052;29;20507;-75
2021/12/01 03:45:28;;;;;;;5.47;3.17;;;8.80;99.90;;;;;;4880036;29;20037;-76
2021/12/01 03:47:54;;;;;;;8.70;3.33;;;8.70;99.90;;;;;;4880207;29;20045;-77
2021/12/01 03:50:20;;;;;;;9.52;2.88;;;8.60;99.90;;;;;;4879978;29;20498;-75
2021/12/01 03:52:46;;;;;;;5.35;2.65;;;8.60;99.90;;;;;;4863393;29;20033;-76
2021/12/01 03:55:11;;;;;;;9.25;3.42;;;8.60;99.90;;;;;;4879961;29;20040;-76
2021/12/01 03:57:37;;;;;;;6.75;3.40;;;8.70;99.90;;;;;;4879831;29;20108;-76
2021/12/01 04:00:08;;;;;;;9.38;3.05;;;8.60;99.90;;;;;;4881587;29;20081;-75
2021/12/01 04:02:34;;;;;;;12.07;2.83;;;8.60;99.90;;;;;;4881399;29;20041;-76
2021/12/01 04:04:59;;;;;;;12.40;3.35;;;8.60;99.90;;;;;;4881075;29;20033;-75
2021/12/01 04:07:25;;;;;;;10.70;2.88;;;8.70;99.90;;;;;;4881370;29;20547;-75
2021/12/01 04:09:51;;;;;;;8.88;3.22;;;8.60;99.90;;;;;;4881409;29;20124;-76
2021/12/01 04:12:17;;;;;;;5.43;2.55;;;8.60;99.90;;;;;;4862995;29;20045;-76
2021/12/01 04:14:44;;;;;;;11.02;2.88;;;8.50;99.90;;;;;;4862538;29;20090;-75
2021/12/01 04:17:10;;;;;;;13.98;3.28;;;8.50;99.90;;;;;;4862336;29;20029;-76
2021/12/01 04:19:35;;;;;;;12.57;3.10;;;8.50;99.90;;;;;;4862382;29;20042;-76
2021/12/01 04:22:01;;;;;;;8.95;2.78;;;8.60;99.90;;;;;;4862754;29;20029;-75
2021/12/01 04:24:28;;;;;;;7.82;2.88;;;8.60;99.90;;;;;;4862230;29;20112;-75
2021/12/01 04:26:54;;;;;;;14.98;3.30;;;8.50;99.90;;;;;;4861788;29;20143;-75
2021/12/01 04:29:20;;;;;;;8.05;3.10;;;8.50;99.90;;;;;;4862120;29;20033;-75
2021/12/01 04:31:46;;;;;;;5.80;2.75;;;8.40;99.90;;;;;;4861615;29;20089;-76
2021/12/01 04:34:12;;;;;;;16.67;3.22;;;8.40;99.90;;;;;;4844695;29;20233;-75
2021/12/01 04:36:41;;;;;;;11.73;3.67;;;8.30;99.90;;;;;;4861721;29;20053;-76
2021/12/01 04:39:13;;;;;;;15.98;3.15;;;8.30;99.90;;;;;;4868361;29;20064;-75
2021/12/01 04:41:48;;;;;;;6.30;2.95;;;8.30;99.90;;;;;;4880145;29;20056;-75
2021/12/01 04:44:14;;;;;;;7.53;3.40;;;8.30;99.90;;;;;;4877527;29;20033;-76
2021/12/01 04:46:44;;;;;;;10.25;2.90;;;8.30;99.90;;;;;;4879189;29;20033;-80
2021/12/01 04:49:13;;;;;;;5.68;2.65;;;8.30;99.90;;;;;;4879010;29;20119;-76
2021/12/01 04:51:40;;;;;;;9.75;3.03;;;8.30;99.90;;;;;;4878880;29;20037;-78
2021/12/01 04:54:07;;;;;;;6.30;3.30;;;8.30;99.90;;;;;;4879104;29;20113;-77
2021/12/01 04:56:32;;;;;;;12.45;3.72;;;8.30;99.90;;;;;;4877387;29;20081;-77
2021/12/01 04:58:59;;;;;;;7.13;3.22;;;8.30;99.90;;;;;;4880062;29;20121;-75
2021/12/01 05:01:24;;;;;;;8.20;2.90;;;8.30;99.90;;;;;;4880120;29;20045;-77
2021/12/01 05:03:50;;;;;;;6.03;2.97;;;8.20;99.90;;;;;;4879980;29;20036;-74
2021/12/01 05:06:17;;;;;;;11.43;2.92;;;8.20;99.90;;;;;;4880204;29;20044;-78
2021/12/01 05:08:43;;;;;;;9.65;3.35;;;8.20;99.90;;;;;;4863490;29;20112;-77
2021/12/01 05:11:09;;;;;;;10.32;2.85;;;8.20;99.90;;;;;;4880478;29;20120;-75
2021/12/01 05:13:35;;;;;;;14.30;3.65;;;8.10;99.90;;;;;;4880433;29;20498;-74
2021/12/01 05:16:01;;;;;;;9.15;2.97;;;8.20;99.90;;;;;;4880168;29;20041;-79
2021/12/01 05:18:27;;;;;;;12.50;3.00;;;8.10;99.90;;;;;;4880224;29;20056;-78
2021/12/01 05:20:52;;;;;;;14.18;3.17;;;8.10;99.90;;;;;;4877027;29;20080;-78
2021/12/01 05:23:18;;;;;;;9.02;3.13;;;8.10;99.90;;;;;;4869893;29;20033;-74
2021/12/01 05:25:45;;;;;;;6.63;2.60;;;8.10;99.90;;;;;;4880037;29;20124;-74
2021/12/01 05:28:11;;;;;;;14.20;2.83;;;8.10;99.90;;;;;;4862622;29;20085;-78
2021/12/01 05:30:37;;;;;;;9.98;3.05;;;8.10;99.90;;;;;;4863500;29;20041;-78
2021/12/01 05:33:08;;;;;;;7.70;3.28;;;8.20;99.90;;;;;;4879913;29;20542;-78
2021/12/01 05:35:34;;;;;;;9.25;3.05;;;8.20;99.90;;;;;;4862607;29;20052;-75
2021/12/01 05:38:00;;;;;;;8.52;3.33;;;8.20;99.90;;;;;;4879419;29;20422;-77
2021/12/01 05:40:26;;;;;;;11.30;2.78;;;8.20;99.90;;;;;;4861301;29;20037;-78
2021/12/01 05:42:52;;;;;;;10.07;2.80;;;8.20;99.90;;;;;;4860551;29;20480;-78
2021/12/01 05:45:18;;;;;;;4.60;2.88;;;8.10;99.90;;;;;;4860944;29;20452;-78
2021/12/01 05:47:44;;;;;;;6.75;3.05;;;8.10;99.90;;;;;;4861160;29;20076;-77
2021/12/01 05:50:10;;;;;;;9.20;3.38;;;8.10;99.90;;;;;;4861224;29;20065;-77
2021/12/01 05:52:36;;;;;;;8.15;3.45;;;8.10;99.90;;;;;;4860882;29;20046;-78
2021/12/01 05:55:03;;;;;;;10.23;2.50;;;8.10;99.90;;;;;;4860202;29;20038;-77
2021/12/01 05:57:28;;;;;;;5.45;2.80;;;8.10;99.90;;;;;;4843275;29;20045;-77
2021/12/01 05:59:54;;;;;;;8.50;3.13;;;8.10;99.90;;;;;;4860468;29;20050;-78
2021/12/01 06:02:20;;;;;;;9.50;3.42;;;8.00;99.90;;;;;;4860800;29;20543;-77
2021/12/01 06:04:45;;;;;;;13.02;3.15;;;8.00;99.90;;;;;;4860886;29;20041;-78
2021/12/01 06:07:11;;;;;;;12.18;3.20;;;8.00;99.90;;;;;;4861088;29;20026;-77
2021/12/01 06:09:37;;;;;;;5.95;2.90;;;8.10;99.90;;;;;;4855033;29;20129;-75
2021/12/01 06:12:03;;;;;;;7.97;2.88;;;8.00;99.90;;;;;;4879302;29;20486;-77
2021/12/01 06:14:30;;;;;;;4.40;2.90;;;8.00;99.90;;;;;;4879511;29;20443;-84
2021/12/01 06:16:55;;;;;;;11.82;3.13;;;8.00;99.90;;;;;;4879350;29;20037;-78
2021/12/01 06:19:22;;;;;;;9.10;3.03;;;8.00;99.90;;;;;;4879533;29;20037;-77
2021/12/01 06:21:48;;;;;;;9.23;3.25;;;8.00;99.90;;;;;;4879214;29;20033;-83
2021/12/01 06:24:13;;;;;;;15.68;3.38;;;8.00;99.90;;;;;;4879222;29;20067;-77
2021/12/01 06:26:39;;;;;;;7.00;4.30;;;8.00;99.90;;;;;;4877631;29;20037;-77
2021/12/01 06:29:05;;;;;;;7.20;3.28;;;7.90;99.90;;;;;;4860311;29;20033;-78
2021/12/01 06:31:31;;;;;;;14.45;3.15;;;7.90;99.90;;;;;;4860446;29;20053;-76
2021/12/01 06:33:58;;;;;;;7.88;3.50;;;7.90;99.90;;;;;;4860203;29;20044;-76
2021/12/01 06:36:24;;;;;;;6.97;3.53;;;7.90;99.90;;;;;;4860280;29;20030;-76
2021/12/01 06:38:51;;;;;;;5.78;3.17;;;7.90;99.90;;;;;;4864418;29;20045;-77
2021/12/01 06:41:17;;;;;;;6.00;3.15;;;7.80;99.90;;;;;;4874428;29;20066;-77
2021/12/01 06:43:44;;;;;;;5.78;3.20;;;7.90;99.90;;;;;;4860219;29;20029;-82
2021/12/01 06:46:10;;;;;;;4.95;3.08;;;7.80;99.90;;;;;;4860065;29;20182;-77
2021/12/01 06:48:36;;;;;;;8.38;3.45;;;7.90;99.90;;;;;;4860196;29;20522;-75
2021/12/01 06:51:01;;;;;;;7.45;3.92;;;7.90;99.90;;;;;;4843401;29;20144;-74
2021/12/01 06:53:27;;;;;;;7.93;3.38;;;8.00;99.90;;;;;;4859576;29;20058;-74
2021/12/01 06:55:53;;;;;;;8.40;3.50;;;8.10;99.90;;;;;;4860266;29;20040;-74
2021/12/01 06:58:19;;;;;;;9.52;3.42;;;8.10;99.90;;;;;;4873525;29;20557;-75
2021/12/01 07:00:45;;;;;;;6.93;3.40;;;8.20;99.90;;;;;;4878469;29;20056;-75
2021/12/01 07:03:11;;;;;;;7.93;3.35;;;8.20;99.90;;;;;;4878516;29;20104;-75
2021/12/01 07:05:37;;;;;;;12.02;3.10;;;8.30;99.90;;;;;;4878817;29;20039;-76
2021/12/01 07:08:04;;;;;;;11.63;4.25;;;8.30;99.90;;;;;;4878563;29;20492;-75
2021/12/01 07:10:30;;;;;;;12.05;3.55;;;8.50;99.90;;;;;;4878388;29;20091;-75
2021/12/01 07:12:56;;;;;;;18.83;3.60;;;8.50;99.90;;;;;;4878690;29;20260;-76
2021/12/01 07:15:22;;;;;;;9.98;3.50;;;8.60;99.90;;;;;;4878586;29;20482;-76
2021/12/01 07:17:48;;;;;;;11.73;4.03;;;8.70;99.90;;;;;;4878746;29;20044;-73
2021/12/01 07:20:14;;;;;;;12.45;3.55;;;8.90;99.90;;;;;;4878755;29;20112;-75
2021/12/01 07:22:42;;;;;;;6.28;2.95;;;9.00;99.90;;;;;;4878332;29;20037;-75
2021/12/01 07:25:08;;;;;;;12.70;3.70;;;9.40;99.90;;;;;;4878565;29;20104;-75
2021/12/01 07:27:34;;;;;;;14.52;3.75;;;9.80;99.90;;;;;;4870370;29;20047;-75
2021/12/01 07:30:00;;;;;;;15.10;5.28;;;10.00;99.90;;;;;;4859949;29;20046;-75
2021/12/01 07:32:26;;;;;;;9.40;3.13;;;10.20;99.90;;;;;;4859945;29;20041;-75
2021/12/01 07:34:51;;;;;;;10.07;2.72;;;10.60;99.90;;;;;;4859867;29;20497;-76
2021/12/01 07:37:18;;;;;;;7.13;3.00;;;10.90;99.90;;;;;;4859842;29;20042;-76
2021/12/01 07:39:46;;;;;;;9.70;2.80;;;11.10;99.90;;;;;;4859778;29;20045;-76
2021/12/01 07:42:12;;;;;;;7.68;2.70;;;11.60;99.90;;;;;;4859898;29;20038;-76
2021/12/01 07:44:38;;;;;;;7.97;2.65;;;11.90;99.90;;;;;;4859400;29;20037;-76
2021/12/01 07:47:05;;;;;;;6.93;3.28;;;12.40;99.90;;;;;;4859123;29;20558;-77
2021/12/01 07:49:30;;;;;;;11.02;3.65;;;12.80;99.90;;;;;;4860245;29;20143;-76
2021/12/01 07:51:56;;;;;;;14.45;2.97;;;12.90;99.90;;;;;;4880259;29;20044;-76
2021/12/01 07:54:22;;;;;;;7.25;2.50;;;13.20;99.90;;;;;;4881712;29;20037;-76
2021/12/01 07:56:47;;;;;;;8.27;3.08;;;13.30;99.90;;;;;;4880140;29;20048;-76
2021/12/01 07:59:15;;;;;;;9.55;2.88;;;12.90;99.90;;;;;;4881728;29;20540;-76
2021/12/01 08:01:42;;;;;;;6.78;2.90;;;12.40;99.90;;;;;;4863089;29;20041;-76
2021/12/01 08:04:09;;;;;;;6.15;3.30;;;11.80;99.90;;;;;;4881065;29;20072;-74
2021/12/01 08:06:35;;;;;;;6.25;3.13;;;11.60;99.90;;;;;;4857631;29;20041;-76
2021/12/01 08:09:02;;;;;;;13.48;5.82;;;11.30;99.90;;;;;;4856921;29;20449;-75
2021/12/01 08:11:28;;;;;;;16.77;6.45;;;11.10;99.90;;;;;;4848970;29;20132;-75
2021/12/01 08:13:54;;;;;;;21.02;10.70;;;11.10;99.90;;;;;;4872007;29;20029;-75
2021/12/01 08:16:20;;;;;;;7.32;4.43;;;11.10;99.90;;;;;;4871915;29;20042;-76
2021/12/01 08:18:55;;;;;;;9.32;3.78;;;11.10;99.90;;;;;;4845046;29;20040;-75
2021/12/01 08:21:25;;;;;;;18.20;8.48;;;11.00;99.90;;;;;;4862026;29;20037;-75
2021/12/01 08:23:52;;;;;;;7.47;4.50;;;11.00;99.90;;;;;;4859811;29;20476;-77
2021/12/01 08:26:18;;;;;;;7.80;4.03;;;11.20;99.90;;;;;;4861585;29;20065;-75
2021/12/01 08:28:47;;;;;;;18.70;9.77;;;11.50;99.90;;;;;;4860933;29;20029;-76
2021/12/01 08:31:15;;;;;;;25.83;8.50;;;11.50;99.90;;;;;;4844027;29;21087;-75
2021/12/01 08:33:42;;;;;;;23.73;10.27;;;11.50;99.90;;;;;;4861753;29;20452;-76
2021/12/01 08:36:09;;;;;;;16.52;6.45;;;11.40;99.90;;;;;;4861104;29;20116;-76
2021/12/01 08:38:36;;;;;;;22.67;14.27;;;11.70;99.90;;;;;;4862118;29;20060;-76
2021/12/01 08:41:02;;;;;;;11.10;4.25;;;12.30;99.90;;;;;;4844781;29;20483;-76
2021/12/01 08:43:28;;;;;;;8.48;3.53;;;12.90;99.90;;;;;;4861445;29;20030;-76
2021/12/01 08:45:54;;;;;;;16.42;3.60;;;13.80;99.90;;;;;;4861561;29;20108;-78
2021/12/01 08:48:20;;;;;;;17.27;3.83;;;16.00;99.90;;;;;;4859524;29;20074;-76
2021/12/01 08:50:46;;;;;;;13.07;3.50;;;18.20;99.90;;;;;;4855519;29;20057;-77
2021/12/01 08:53:11;;;;;;;7.25;2.13;;;19.40;99.90;;;;;;4863335;29;20518;-77
2021/12/01 08:55:40;;;;;;;6.18;2.28;;;20.20;99.90;;;;;;4880687;29;20120;-77
2021/12/01 08:58:11;;;;;;;8.75;2.13;;;20.50;98.20;;;;;;4862973;29;20119;-76
2021/12/01 09:00:40;;;;;;;7.22;2.50;;;18.80;99.20;;;;;;4860381;29;20049;-77
2021/12/01 09:03:07;;;;;;;3.83;2.13;;;17.80;99.90;;;;;;4874113;29;20037;-77
2021/12/01 09:05:32;;;;;;;9.70;2.67;;;18.00;99.90;;;;;;4863653;29;20040;-76
2021/12/01 09:07:58;;;;;;;8.88;3.50;;;17.80;99.90;;;;;;4843396;29;20041;-76
2021/12/01 09:10:24;;;;;;;9.35;3.13;;;17.90;99.90;;;;;;4875949;29;20045;-76
2021/12/01 09:12:49;;;;;;;7.88;2.58;;;17.20;99.90;;;;;;4875024;29;20041;-76
2021/12/01 09:15:15;;;;;;;8.25;2.95;;;16.60;99.90;;;;;;4878721;29;20048;-76
2021/12/01 09:17:41;;;;;;;8.95;4.35;;;15.80;99.90;;;;;;4861245;29;20041;-77
2021/12/01 09:20:07;;;;;;;11.73;2.72;;;15.00;99.90;;;;;;4853940;29;20038;-77
2021/12/01 09:22:33;;;;;;;8.20;6.18;;;14.90;99.90;;;;;;4860091;29;20029;-77
2021/12/01 09:24:59;;;;;;;7.65;3.92;;;15.70;99.90;;;;;;4861138;29;20050;-77
2021/12/01 09:27:25;;;;;;;6.10;2.85;;;16.70;99.90;;;;;;4872516;29;20458;-76
2021/12/01 09:29:53;;;;;;;10.48;2.92;;;17.30;99.90;;;;;;4871936;29;20686;-76
2021/12/01 09:32:19;;;;;;;9.93;2.42;;;17.80;99.90;;;;;;4873691;29;20040;-75
2021/12/01 09:34:45;;;;;;;12.00;4.28;;;18.10;99.90;;;;;;4864885;29;20503;-74
2021/12/01 09:37:11;;;;;;;7.03;2.10;;;18.30;99.90;;;;;;4871194;29;20120;-77
2021/12/01 09:39:37;;;;;;;8.88;2.47;;;18.00;99.90;;;;;;4867235;29;20166;-77
2021/12/01 09:42:04;;;;;;;11.75;3.13;;;17.90;99.90;;;;;;4871413;29;20037;-76
2021/12/01 09:44:31;;;;;;;7.47;2.28;;;17.50;99.90;;;;;;4876639;29;20039;-76
2021/12/01 09:46:56;;;;;;;5.85;2.80;;;17.20;99.90;;;;;;4858670;29;20527;-78
2021/12/01 09:49:22;;;;;;;6.32;2.63;;;16.50;99.90;;;;;;4855499;29;20120;-76
2021/12/01 09:51:48;;;;;;;9.35;2.47;;;16.00;99.90;;;;;;4875882;29;20041;-76
2021/12/01 09:54:14;;;;;;;11.70;2.22;;;15.40;99.90;;;;;;4868369;29;20044;-74
2021/12/01 09:56:40;;;;;;;5.20;2.20;;;15.10;99.90;;;;;;4863855;29;20033;-74
2021/12/01 09:59:05;;;;;;;7.03;2.25;;;15.20;99.90;;;;;;4871920;29;20032;-76
2021/12/01 10:01:31;;;;;;;11.63;2.40;;;15.20;99.90;;;;;;4859118;29;20447;-77
2021/12/01 10:03:58;;;;;;;9.98;2.20;;;15.80;99.90;;;;;;4878336;29;20031;-77
2021/12/01 10:06:25;;;;;;;8.07;2.17;;;16.30;99.90;;;;;;4865199;29;20044;-78
2021/12/01 10:08:54;;;;;;;5.03;2.28;;;16.80;99.90;;;;;;4842965;29;20030;-76
2021/12/01 10:11:24;;;;;;;4.82;2.65;;;16.70;99.90;;;;;;4859808;29;20133;-78
2021/12/01 10:13:54;;;;;;;9.20;2.97;;;16.70;99.90;;;;;;4859620;29;20038;-77
2021/12/01 10:16:22;;;;;;;4.55;1.95;;;16.20;99.90;;;;;;4842335;29;20054;-76
2021/12/01 10:18:50;;;;;;;5.85;2.40;;;16.20;99.90;;;;;;4842030;29;20041;-78
2021/12/01 10:21:45;;;;;;;10.52;2.50;;;15.60;99.90;;;;;;4859436;29;20469;-77
2021/12/01 10:24:23;;;;;;;5.30;2.22;;;15.20;99.90;;;;;;4854322;29;20113;-77
2021/12/01 10:26:50;;;;;;;8.55;2.20;;;14.90;99.90;;;;;;4871407;29;20371;-75
2021/12/01 10:29:21;;;;;;;7.05;2.88;;;14.60;99.90;;;;;;4859807;29;20037;-75
2021/12/01 10:31:52;;;;;;;8.23;3.00;;;14.20;99.90;;;;;;4859399;29;20048;-76
2021/12/01 10:34:38;;;;;;;4.80;2.58;;;14.00;99.90;;;;;;4867019;29;20033;-75
2021/12/01 10:37:26;;;;;;;7.85;2.38;;;14.00;99.90;;;;;;4866839;29;20402;-75
2021/12/01 10:40:11;;;;;;;13.85;2.65;;;13.90;99.90;;;;;;4857696;29;20041;-75
2021/12/01 10:43:04;;;;;;;7.30;2.58;;;13.80;99.90;;;;;;4859871;29;20033;-77
2021/12/01 10:45:38;;;;;;;12.88;3.03;;;13.80;99.90;;;;;;4858673;29;20439;-75
2021/12/01 10:48:07;;;;;;;7.10;2.63;;;13.60;99.90;;;;;;4859281;29;20042;-75
2021/12/01 10:50:36;;;;;;;7.40;2.70;;;13.50;99.90;;;;;;4858812;29;20033;-76
2021/12/01 10:53:06;;;;;;;16.45;2.40;;;13.30;99.90;;;;;;4859374;29;20064;-75
2021/12/01 10:55:34;;;;;;;8.00;2.60;;;13.20;99.90;;;;;;4843119;29;20054;-76
2021/12/01 10:58:04;;;;;;;6.50;2.10;;;13.10;99.90;;;;;;4859270;29;20034;-75
2021/12/01 11:00:32;;;;;;;12.35;3.33;;;13.10;99.90;;;;;;4859544;29;20101;-75
2021/12/01 11:03:10;;;;;;;6.93;2.58;;;13.00;99.90;;;;;;4842979;29;20033;-75
2021/12/01 11:05:56;;;;;;;5.63;2.70;;;12.90;99.90;;;;;;4857437;29;20021;-76
2021/12/01 11:08:26;;;;;;;13.07;2.60;;;12.90;99.90;;;;;;4856985;29;20052;-76
2021/12/01 11:11:13;;;;;;;7.13;2.33;;;12.80;99.90;;;;;;4859455;29;20065;-75
2021/12/01 11:13:41;;;;;;;5.20;2.47;;;12.80;99.90;;;;;;4842274;29;20415;-76
2021/12/01 11:16:12;;;;;;;6.63;2.78;;;12.90;99.90;;;;;;4857281;29;20050;-76
2021/12/01 11:18:41;;;;;;;10.18;3.28;;;13.00;99.90;;;;;;4848198;29;20561;-77
2021/12/01 11:21:17;;;;;;;8.85;2.88;;;13.00;99.90;;;;;;4849319;29;20049;-76
2021/12/01 11:23:53;;;;;;;11.32;3.25;;;13.00;99.90;;;;;;4841855;29;20034;-77
2021/12/01 11:26:26;;;;;;;10.48;3.22;;;13.00;99.90;;;;;;4860167;29;20137;-76
2021/12/01 11:29:18;;;;;;;7.90;3.63;;;13.10;99.90;;;;;;4862792;29;20089;-77
2021/12/01 11:31:46;;;;;;;;;;;13.10;99.90;;;;;;4842851;29;20089;-78
2021/12/01 11:34:15;;;;;;;6.32;2.65;;;13.10;99.90;;;;;;4866150;29;19919;-78
2021/12/01 11:36:47;;;;;;;12.68;4.20;;;13.10;99.90;;;;;;4865438;29;20025;-76
2021/12/01 11:39:21;;;;;;;11.43;2.75;;;13.20;99.90;;;;;;4866044;29;20067;-76
2021/12/01 11:41:49;;;;;;;7.35;3.35;;;13.20;99.90;;;;;;4862181;29;20116;-77
2021/12/01 11:44:17;;;;;;;13.63;3.85;;;13.20;99.90;;;;;;4864255;29;20132;-76
2021/12/01 11:46:43;;;;;;;13.23;4.18;;;13.20;99.90;;;;;;4862170;29;20034;-77
2021/12/01 11:49:11;;;;;;;12.50;5.10;;;13.20;99.90;;;;;;4862243;29;20487;-77
2021/12/01 11:52:04;;;;;;;21.15;4.45;;;13.20;99.90;;;;;;4858620;29;20056;-77
2021/12/01 11:54:31;;;;;;;17.00;6.13;;;13.10;99.90;;;;;;4846162;29;20034;-76
2021/12/01 11:57:04;;;;;;;13.27;5.90;;;13.00;99.90;;;;;;4861240;29;20411;-76
2021/12/01 11:59:48;;;;;;;12.65;5.78;;;12.90;99.90;;;;;;4860702;29;20038;-76
2021/12/01 12:02:22;;;;;;;22.80;6.32;;;12.90;99.90;;;;;;4861437;29;20057;-77
2021/12/01 12:04:53;;;;;;;13.48;6.10;;;12.90;99.90;;;;;;4860643;29;20502;-76
2021/12/01 12:07:24;;;;;;;24.02;6.53;;;12.90;99.90;;;;;;4844520;29;20041;-79
2021/12/01 12:10:13;;;;;;;18.60;6.47;;;12.90;99.90;;;;;;4844426;29;20070;-76
2021/12/01 12:12:57;;;;;;;22.35;6.70;;;12.90;99.90;;;;;;4845206;29;20143;-76
2021/12/01 12:15:54;;;;;;;25.80;8.07;;;12.90;99.90;;;;;;4859915;29;20393;-78
2021/12/01 12:18:35;;;;;;;13.60;8.38;;;12.90;99.90;;;;;;4859470;29;20480;-76
2021/12/01 12:21:23;;;;;;;28.83;8.27;;;12.90;99.90;;;;;;4844473;29;20044;-76
2021/12/01 12:23:50;;;;;;;16.60;8.05;;;12.80;99.90;;;;;;4860897;29;20053;-75
2021/12/01 12:26:32;;;;;;;17.10;8.18;;;12.80;99.90;;;;;;4860382;29;20042;-76
2021/12/01 12:29:22;;;;;;;29.48;10.45;;;12.70;99.90;;;;;;4861146;29;20718;-76
2021/12/01 12:31:50;;;;;;;23.60;10.82;;;12.60;99.90;;;;;;4841987;29;20136;-76
2021/12/01 12:34:21;;;;;;;22.10;8.73;;;12.60;99.90;;;;;;4860750;29;20116;-75
2021/12/01 12:36:49;;;;;;;19.77;8.70;;;12.50;99.90;;;;;;4860198;29;20025;-75
2021/12/01 12:39:15;;;;;;;24.02;8.38;;;12.50;99.90;;;;;;4860502;29;20046;-76
2021/12/01 12:41:57;;;;;;;23.25;9.15;;;12.40;99.90;;;;;;4860974;29;20459;-76
2021/12/01 12:44:34;;;;;;;17.48;8.77;;;12.40;99.90;;;;;;4861464;29;20040;-77
2021/12/01 12:47:01;;;;;;;17.35;8.13;;;12.30;99.90;;;;;;4860313;29;20093;-78
2021/12/01 12:49:47;;;;;;;15.07;7.70;;;12.20;99.90;;;;;;4860565;29;20048;-76
2021/12/01 12:52:25;;;;;;;23.42;9.10;;;12.20;99.90;;;;;;4860373;29;20145;-76
2021/12/01 12:55:23;;;;;;;19.80;8.27;;;12.20;99.90;;;;;;4844220;29;20034;-76
2021/12/01 12:57:57;;;;;;;22.52;9.68;;;12.20;99.90;;;;;;4862167;29;20517;-76
2021/12/01 13:00:23;;;;;;;22.25;10.40;;;12.10;99.90;;;;;;4840999;29;20128;-77
2021/12/01 13:02:50;;;;;;;14.98;8.85;;;12.10;99.90;;;;;;4862822;29;20116;-78